createdAt,value
2022-10-09T00:02:55.483Z,17.70
2022-10-09T00:11:03.392Z,17.40
2022-10-09T00:19:08.762Z,17.70
2022-10-09T00:27:16.671Z,17.10
2022-10-09T00:35:22.231Z,17.30
2022-10-09T00:43:47.463Z,17.00
2022-10-09T00:51:54.641Z,17.00
2022-10-09T01:00:04.861Z,17.10
2022-10-09T01:08:17.303Z,17.40
2022-10-09T01:16:30.247Z,17.30
2022-10-09T01:24:42.230Z,17.30
2022-10-09T01:32:53.770Z,17.30
2022-10-09T01:40:59.974Z,17.20
2022-10-09T01:49:18.496Z,17.20
2022-10-09T01:57:30.436Z,16.80
2022-10-09T02:05:40.145Z,16.70
2022-10-09T02:13:46.861Z,16.80
2022-10-09T02:21:58.615Z,16.20
2022-10-09T02:30:04.618Z,16.50
2022-10-09T02:38:12.529Z,16.70
2022-10-09T02:46:18.225Z,16.80
2022-10-09T02:54:26.127Z,16.60
2022-10-09T03:02:31.511Z,16.30
2022-10-09T03:10:42.043Z,15.80
2022-10-09T03:18:48.150Z,16.10
2022-10-09T03:26:56.104Z,16.10
2022-10-09T03:35:01.408Z,16.00
2022-10-09T03:43:09.969Z,16.00
2022-10-09T03:51:15.258Z,16.20
2022-10-09T03:59:23.194Z,15.80
2022-10-09T04:07:28.550Z,16.00
2022-10-09T04:15:36.959Z,15.90
2022-10-09T04:23:42.539Z,15.70
2022-10-09T04:31:50.499Z,15.80
2022-10-09T04:39:55.786Z,15.60
2022-10-09T04:48:03.693Z,15.90
2022-10-09T04:56:12.294Z,15.70
2022-10-09T05:04:20.165Z,15.40
2022-10-09T05:12:25.487Z,15.60
2022-10-09T05:20:33.433Z,15.70
2022-10-09T05:28:39.238Z,16.20
2022-10-09T05:36:47.298Z,16.10
2022-10-09T05:44:52.565Z,16.40
2022-10-09T05:53:00.419Z,16.90
2022-10-09T06:01:05.731Z,17.30
2022-10-09T06:09:14.901Z,17.80
2022-10-09T06:17:20.245Z,18.50
2022-10-09T06:25:28.188Z,18.90
2022-10-09T06:33:35.000Z,19.20
2022-10-09T06:41:42.982Z,19.70
2022-10-09T06:50:07.918Z,20.20
2022-10-09T06:58:15.809Z,20.40
2022-10-09T07:06:23.236Z,20.80
2022-10-09T07:14:33.198Z,21.40
2022-10-09T07:22:38.578Z,21.70
2022-10-09T07:30:46.441Z,21.70
2022-10-09T07:38:54.039Z,22.10
2022-10-09T07:47:01.919Z,22.60
2022-10-09T07:55:08.007Z,23.20
2022-10-09T08:03:15.932Z,23.40
2022-10-09T08:11:22.813Z,23.20
2022-10-09T08:19:30.763Z,23.20
2022-10-09T08:27:36.071Z,23.50
2022-10-09T08:35:44.095Z,24.20
2022-10-09T08:43:56.747Z,25.20
2022-10-09T08:52:15.553Z,26.20
2022-10-09T09:00:23.223Z,26.80
2022-10-09T09:08:42.390Z,27.50
2022-10-09T09:16:54.967Z,28.00
2022-10-09T09:25:04.817Z,29.20
2022-10-09T09:33:18.638Z,30.10
2022-10-09T09:41:26.504Z,35.90
2022-10-09T09:49:31.835Z,43.10
2022-10-09T09:57:45.637Z,47.60
2022-10-09T10:05:51.010Z,50.20
2022-10-09T10:13:59.152Z,52.20
2022-10-09T10:22:05.834Z,53.90
2022-10-09T10:30:17.132Z,53.70
2022-10-09T10:38:28.481Z,53.80
2022-10-09T10:46:49.053Z,54.90
2022-10-09T10:55:01.756Z,53.80
2022-10-09T11:03:34.495Z,54.40
2022-10-09T11:11:47.293Z,50.30
2022-10-09T11:20:33.467Z,42.10
2022-10-09T11:28:46.623Z,36.40
2022-10-09T11:36:54.773Z,34.20
2022-10-09T11:45:17.804Z,32.50
2022-10-09T11:53:28.585Z,31.60
2022-10-09T12:01:37.685Z,31.00
2022-10-09T12:09:47.776Z,31.30
2022-10-09T12:17:53.085Z,30.00
2022-10-09T12:26:02.095Z,28.60
2022-10-09T12:34:18.474Z,28.30
2022-10-09T12:42:27.944Z,28.90
2022-10-09T12:50:36.097Z,29.10
2022-10-09T12:58:45.158Z,28.50
2022-10-09T13:06:52.972Z,28.50
2022-10-09T13:15:02.360Z,28.30
2022-10-09T13:23:08.999Z,27.80
2022-10-09T13:31:18.583Z,27.30
2022-10-09T13:39:23.909Z,26.60
2022-10-09T13:47:32.031Z,26.40
2022-10-09T13:55:37.316Z,26.70
2022-10-09T14:03:47.408Z,26.80
2022-10-09T14:11:52.759Z,26.50
2022-10-09T14:20:00.947Z,26.10
2022-10-09T14:28:06.566Z,25.80
2022-10-09T14:36:18.728Z,25.50
2022-10-09T14:44:23.986Z,25.20
2022-10-09T14:52:31.957Z,25.10
2022-10-09T15:00:37.264Z,24.90
2022-10-09T15:08:47.408Z,24.60
2022-10-09T15:16:52.693Z,24.40
2022-10-09T15:25:00.629Z,24.40
2022-10-09T15:33:06.114Z,24.30
2022-10-09T15:41:24.137Z,24.00
2022-10-09T15:49:29.532Z,23.90
2022-10-09T15:57:37.378Z,23.80
2022-10-09T16:05:45.456Z,23.60
2022-10-09T16:13:53.390Z,23.50
2022-10-09T16:21:58.704Z,23.30
2022-10-09T16:30:08.604Z,23.20
2022-10-09T16:38:14.046Z,23.00
2022-10-09T16:46:26.058Z,22.90
2022-10-09T16:54:31.398Z,22.50
2022-10-09T17:02:39.448Z,22.50
2022-10-09T17:10:45.010Z,22.30
2022-10-09T17:18:54.524Z,22.10
2022-10-09T17:27:00.243Z,22.00
2022-10-09T17:35:09.433Z,21.70
2022-10-09T17:43:14.806Z,21.50
2022-10-09T17:51:25.516Z,21.40
2022-10-09T17:59:31.350Z,21.10
2022-10-09T18:07:39.401Z,21.10
2022-10-09T18:15:46.649Z,21.20
2022-10-09T18:23:55.051Z,21.30
2022-10-09T18:32:00.337Z,21.10
2022-10-09T18:40:10.127Z,20.80
2022-10-09T18:48:15.519Z,20.70
2022-10-09T18:56:25.099Z,20.70
2022-10-09T19:04:30.454Z,20.80
2022-10-09T19:12:38.652Z,20.80
2022-10-09T19:20:43.959Z,20.70
2022-10-09T19:28:52.226Z,20.60
2022-10-09T19:36:57.536Z,20.50
2022-10-09T19:45:05.507Z,20.40
2022-10-09T19:53:10.839Z,20.30
2022-10-09T20:01:20.680Z,20.30
2022-10-09T20:09:26.234Z,20.10
2022-10-09T20:17:34.205Z,20.00
2022-10-09T20:25:39.539Z,20.00
2022-10-09T20:33:48.760Z,19.80
2022-10-09T20:41:54.086Z,19.70
2022-10-09T20:50:02.072Z,19.80
2022-10-09T20:58:07.673Z,19.80
2022-10-09T21:06:17.932Z,19.70
2022-10-09T21:14:23.219Z,19.40
2022-10-09T21:22:31.176Z,19.30
2022-10-09T21:30:41.857Z,19.40
2022-10-09T21:38:49.811Z,19.50
2022-10-09T21:46:55.139Z,19.50
2022-10-09T21:55:03.139Z,19.40
2022-10-09T22:03:08.712Z,19.30
2022-10-09T22:11:16.605Z,19.30
2022-10-09T22:19:21.817Z,19.20
2022-10-09T22:27:29.741Z,18.90
2022-10-09T22:35:34.927Z,19.00
2022-10-09T22:43:43.596Z,18.70
2022-10-09T22:51:49.003Z,18.50
2022-10-09T22:59:56.863Z,18.60
2022-10-09T23:08:02.115Z,18.50
2022-10-09T23:16:12.471Z,18.40
2022-10-09T23:24:18.835Z,18.40
2022-10-09T23:32:26.793Z,18.10
2022-10-09T23:40:32.089Z,17.90
2022-10-09T23:48:40.224Z,18.00
2022-10-09T23:56:45.670Z,18.00
